createdAt,value
2022-12-05T00:01:54.761Z,19.53
2022-12-05T00:04:22.998Z,20.80
2022-12-05T00:06:51.624Z,19.23
2022-12-05T00:09:21.070Z,20.13
2022-12-05T00:11:50.248Z,20.97
2022-12-05T00:14:18.429Z,20.03
2022-12-05T00:16:46.826Z,19.27
2022-12-05T00:19:16.844Z,21.77
2022-12-05T00:21:45.720Z,20.53
2022-12-05T00:24:16.880Z,20.60
2022-12-05T00:26:46.897Z,19.87
2022-12-05T00:29:15.144Z,19.80
2022-12-05T00:31:43.459Z,22.07
2022-12-05T00:34:11.858Z,18.37
2022-12-05T00:36:40.657Z,18.33
2022-12-05T00:39:11.462Z,21.60
2022-12-05T00:41:40.018Z,21.30
2022-12-05T00:44:09.685Z,20.40
2022-12-05T00:46:38.644Z,21.00
2022-12-05T00:49:08.395Z,20.83
2022-12-05T00:51:39.760Z,18.80
2022-12-05T00:54:09.496Z,19.53
2022-12-05T00:56:38.257Z,19.53
2022-12-05T00:59:06.730Z,20.27
2022-12-05T01:01:38.696Z,19.73
2022-12-05T01:04:09.625Z,20.43
2022-12-05T01:06:38.365Z,20.43
2022-12-05T01:09:06.948Z,20.53
2022-12-05T01:11:41.073Z,18.97
2022-12-05T01:14:10.163Z,17.77
2022-12-05T01:16:41.970Z,18.80
2022-12-05T01:19:12.944Z,16.63
2022-12-05T01:21:41.772Z,20.73
2022-12-05T01:24:10.764Z,18.30
2022-12-05T01:26:39.348Z,20.60
2022-12-05T01:29:07.404Z,19.60
2022-12-05T01:31:37.903Z,18.03
2022-12-05T01:34:09.226Z,18.67
2022-12-05T01:36:39.308Z,17.77
2022-12-05T01:39:08.241Z,18.97
2022-12-05T01:41:39.125Z,19.93
2022-12-05T01:44:09.400Z,19.83
2022-12-05T01:46:39.895Z,20.43
2022-12-05T01:49:13.264Z,18.57
2022-12-05T01:51:44.412Z,17.40
2022-12-05T01:54:13.165Z,19.03
2022-12-05T01:56:45.416Z,20.17
2022-12-05T01:59:14.199Z,20.87
2022-12-05T02:01:42.630Z,20.13
2022-12-05T02:04:12.387Z,19.27
2022-12-05T02:06:40.831Z,17.60
2022-12-05T02:09:09.844Z,18.60
2022-12-05T02:11:45.333Z,17.70
2022-12-05T02:14:23.927Z,16.10
2022-12-05T02:16:59.535Z,18.00
2022-12-05T02:20:00.712Z,17.83
2022-12-05T02:22:47.165Z,19.77
2022-12-05T02:25:29.799Z,18.77
2022-12-05T02:28:35.765Z,19.80
2022-12-05T02:31:09.507Z,19.47
2022-12-05T02:33:44.456Z,18.23
2022-12-05T02:36:18.153Z,17.43
2022-12-05T02:38:53.383Z,17.83
2022-12-05T02:41:26.377Z,22.03
2022-12-05T02:43:59.184Z,18.73
2022-12-05T02:46:31.813Z,18.43
2022-12-05T02:49:02.380Z,16.93
2022-12-05T02:51:34.396Z,18.23
2022-12-05T02:54:06.443Z,19.33
2022-12-05T02:56:36.731Z,18.67
2022-12-05T02:59:05.151Z,17.93
2022-12-05T03:01:34.664Z,18.23
2022-12-05T03:04:05.130Z,18.60
2022-12-05T03:06:37.439Z,16.67
2022-12-05T03:09:10.171Z,18.97
2022-12-05T03:11:42.979Z,16.77
2022-12-05T03:14:14.719Z,18.60
2022-12-05T03:16:49.956Z,18.93
2022-12-05T03:19:22.347Z,16.03
2022-12-05T03:21:55.037Z,17.43
2022-12-05T03:24:24.024Z,16.67
2022-12-05T03:26:58.196Z,17.57
2022-12-05T03:29:30.420Z,14.13
2022-12-05T03:32:09.255Z,17.50
2022-12-05T03:34:47.997Z,18.60
2022-12-05T03:37:22.573Z,15.37
2022-12-05T03:40:02.928Z,17.27
2022-12-05T03:42:36.357Z,17.73
2022-12-05T03:45:10.399Z,17.83
2022-12-05T03:47:47.224Z,19.10
2022-12-05T03:50:22.401Z,19.60
2022-12-05T03:53:19.146Z,16.50
2022-12-05T03:55:46.546Z,16.97
2022-12-05T03:58:21.089Z,16.90
2022-12-05T04:00:53.775Z,19.43
2022-12-05T04:03:38.911Z,18.17
2022-12-05T04:06:13.090Z,17.87
2022-12-05T04:08:46.844Z,15.50
2022-12-05T04:11:19.543Z,19.10
2022-12-05T04:13:51.328Z,17.47
2022-12-05T04:16:49.833Z,18.07
2022-12-05T04:19:26.456Z,17.53
2022-12-05T04:21:56.707Z,19.37
2022-12-05T04:24:45.922Z,18.57
2022-12-05T04:27:23.900Z,18.57
2022-12-05T04:29:59.010Z,17.43
2022-12-05T04:32:31.625Z,18.27
2022-12-05T04:35:07.889Z,18.43
2022-12-05T04:37:41.412Z,18.03
2022-12-05T04:40:15.701Z,21.03
2022-12-05T04:42:45.580Z,18.63
2022-12-05T04:45:17.395Z,17.93
2022-12-05T04:47:50.069Z,18.73
2022-12-05T04:50:21.008Z,18.20
2022-12-05T04:52:52.385Z,21.17
2022-12-05T04:55:25.963Z,20.13
2022-12-05T04:58:04.175Z,18.50
2022-12-05T05:00:36.277Z,19.33
2022-12-05T05:03:09.278Z,20.70
2022-12-05T05:05:39.705Z,21.40
2022-12-05T05:08:17.772Z,18.87
2022-12-05T05:10:55.725Z,22.87
2022-12-05T05:13:24.113Z,21.30
2022-12-05T05:15:52.302Z,18.77
2022-12-05T05:18:20.850Z,19.33
2022-12-05T05:20:50.215Z,19.73
2022-12-05T05:23:18.852Z,19.67
2022-12-05T05:25:46.977Z,19.03
2022-12-05T05:28:15.253Z,19.30
2022-12-05T05:30:43.262Z,19.60
2022-12-05T05:33:11.536Z,17.80
2022-12-05T05:35:39.687Z,20.30
2022-12-05T05:38:10.200Z,18.83
2022-12-05T05:40:38.282Z,18.90
2022-12-05T05:43:06.551Z,19.70
2022-12-05T05:45:34.546Z,19.03
2022-12-05T05:48:02.911Z,19.83
2022-12-05T05:50:30.991Z,18.77
2022-12-05T05:52:59.513Z,20.10
2022-12-05T05:55:28.899Z,20.47
2022-12-05T05:57:57.203Z,19.37
2022-12-05T06:00:25.430Z,20.03
2022-12-05T06:02:53.807Z,19.43
2022-12-05T06:05:22.171Z,19.63
2022-12-05T06:07:50.531Z,19.53
2022-12-05T06:10:19.278Z,20.40
2022-12-05T06:12:48.932Z,19.90
2022-12-05T06:15:17.272Z,19.40
2022-12-05T06:17:45.636Z,21.13
2022-12-05T06:20:14.047Z,18.27
2022-12-05T06:22:42.695Z,18.33
2022-12-05T06:25:11.754Z,18.93
2022-12-05T06:27:40.089Z,15.00
2022-12-05T06:30:10.783Z,18.80
2022-12-05T06:32:39.102Z,17.83
2022-12-05T06:35:15.205Z,19.57
2022-12-05T06:37:43.973Z,17.67
2022-12-05T06:40:12.991Z,21.10
2022-12-05T06:42:41.332Z,20.53
2022-12-05T06:45:11.699Z,18.90
2022-12-05T06:47:39.943Z,17.77
2022-12-05T06:50:09.311Z,15.87
2022-12-05T06:52:37.681Z,20.43
2022-12-05T06:55:06.703Z,17.83
2022-12-05T06:57:35.065Z,18.67
2022-12-05T07:00:17.728Z,19.20
2022-12-05T07:02:47.484Z,18.50
2022-12-05T07:05:15.730Z,17.03
2022-12-05T07:07:44.075Z,19.13
2022-12-05T07:10:12.408Z,17.87
2022-12-05T07:12:40.912Z,16.60
2022-12-05T07:15:09.769Z,17.23
2022-12-05T07:17:39.552Z,18.97
2022-12-05T07:20:12.656Z,18.57
2022-12-05T07:22:40.950Z,19.20
2022-12-05T07:25:09.678Z,18.97
2022-12-05T07:27:38.155Z,18.83
2022-12-05T07:30:07.298Z,18.97
2022-12-05T07:32:35.891Z,19.93
2022-12-05T07:35:03.983Z,17.97
2022-12-05T07:37:33.592Z,18.83
2022-12-05T07:40:01.690Z,17.83
2022-12-05T07:42:30.430Z,18.67
2022-12-05T07:44:58.469Z,18.00
2022-12-05T07:47:26.846Z,20.43
2022-12-05T07:49:54.901Z,18.67
2022-12-05T07:52:23.296Z,19.57
2022-12-05T07:54:52.936Z,20.20
2022-12-05T07:57:21.411Z,19.90
2022-12-05T07:59:49.447Z,19.33
2022-12-05T08:02:17.898Z,19.93
2022-12-05T08:04:46.280Z,18.67
2022-12-05T08:07:14.636Z,17.77
2022-12-05T08:09:42.806Z,19.10
2022-12-05T08:12:12.437Z,19.50
2022-12-05T08:14:40.478Z,20.00
2022-12-05T08:17:08.795Z,19.50
2022-12-05T08:19:37.161Z,22.00
2022-12-05T08:22:05.731Z,17.50
2022-12-05T08:24:33.785Z,20.60
2022-12-05T08:27:02.063Z,18.20
2022-12-05T08:29:31.399Z,19.30
2022-12-05T08:31:59.798Z,21.33
2022-12-05T08:34:27.822Z,19.53
2022-12-05T08:36:56.418Z,18.87
2022-12-05T08:39:24.573Z,20.10
2022-12-05T08:41:52.877Z,20.33
2022-12-05T08:44:21.011Z,20.00
2022-12-05T08:46:51.281Z,20.13
2022-12-05T08:49:20.186Z,20.03
2022-12-05T08:51:48.791Z,18.60
2022-12-05T08:54:17.429Z,20.97
2022-12-05T08:56:45.953Z,20.00
2022-12-05T08:59:13.975Z,17.40
2022-12-05T09:01:42.468Z,18.63
2022-12-05T09:04:12.379Z,19.43
2022-12-05T09:06:41.428Z,20.03
2022-12-05T09:09:11.713Z,19.60
2022-12-05T09:11:46.163Z,19.00
2022-12-05T09:14:14.679Z,19.60
2022-12-05T09:16:45.277Z,18.90
2022-12-05T09:19:16.813Z,19.40
2022-12-05T09:21:45.622Z,18.50
2022-12-05T09:24:15.274Z,18.90
2022-12-05T09:26:44.931Z,17.93
2022-12-05T09:29:17.082Z,18.07
2022-12-05T09:31:48.621Z,18.27
2022-12-05T09:34:20.047Z,19.40
2022-12-05T09:37:05.585Z,18.83
2022-12-05T09:39:34.766Z,18.60
2022-12-05T09:42:22.085Z,20.37
2022-12-05T09:44:59.930Z,18.90
2022-12-05T09:47:41.149Z,17.93
2022-12-05T09:50:18.059Z,18.90
2022-12-05T09:53:05.755Z,18.07
2022-12-05T09:55:47.528Z,19.47
2022-12-05T09:58:23.251Z,19.40
2022-12-05T10:00:55.627Z,19.07
2022-12-05T10:03:30.214Z,21.53
2022-12-05T10:06:12.462Z,18.30
2022-12-05T10:08:54.925Z,18.67
2022-12-05T10:11:33.394Z,17.83
2022-12-05T10:14:13.217Z,19.57
2022-12-05T10:16:48.634Z,19.50
2022-12-05T10:19:19.988Z,18.90
2022-12-05T10:21:56.613Z,20.23
2022-12-05T10:24:31.579Z,21.93
2022-12-05T10:27:03.463Z,19.47
2022-12-05T10:29:36.833Z,19.20
2022-12-05T10:32:12.112Z,19.17
2022-12-05T10:34:42.076Z,18.23
2022-12-05T10:37:17.021Z,19.90
2022-12-05T10:39:46.211Z,20.93
2022-12-05T10:42:18.062Z,30.00
2022-12-05T10:44:46.725Z,20.80
2022-12-05T10:47:15.033Z,19.40
2022-12-05T10:49:44.062Z,21.50
2022-12-05T10:52:14.530Z,19.93
2022-12-05T10:54:47.766Z,18.73
2022-12-05T10:57:24.303Z,20.53
2022-12-05T10:59:52.875Z,19.57
2022-12-05T11:02:26.940Z,19.50
2022-12-05T11:04:56.926Z,19.20
2022-12-05T11:07:31.065Z,20.87
2022-12-05T11:10:01.163Z,19.40
2022-12-05T11:12:37.427Z,23.63
2022-12-05T11:15:25.449Z,21.17
2022-12-05T11:18:00.616Z,20.30
2022-12-05T11:20:40.603Z,19.50
2022-12-05T11:23:24.305Z,19.13
2022-12-05T11:25:56.036Z,20.37
2022-12-05T11:28:31.530Z,18.23
2022-12-05T11:31:03.518Z,19.13
2022-12-05T11:33:34.130Z,21.70
2022-12-05T11:36:07.240Z,18.83
2022-12-05T11:38:37.111Z,20.63
2022-12-05T11:41:23.266Z,20.93
2022-12-05T11:44:10.824Z,20.57
2022-12-05T11:46:51.659Z,20.37
2022-12-05T11:49:38.980Z,19.90
2022-12-05T11:52:16.033Z,19.37
2022-12-05T11:55:12.330Z,20.50
2022-12-05T11:58:03.900Z,19.37
2022-12-05T12:00:43.482Z,19.67
2022-12-05T12:03:36.524Z,18.37
2022-12-05T12:06:21.979Z,19.53
2022-12-05T12:09:08.540Z,20.80
2022-12-05T12:11:45.110Z,18.57
2022-12-05T12:14:35.144Z,19.63
2022-12-05T12:17:15.772Z,22.23
2022-12-05T12:20:03.117Z,19.73
2022-12-05T12:22:49.285Z,20.47
2022-12-05T12:25:29.716Z,19.53
2022-12-05T12:28:12.122Z,18.33
2022-12-05T12:30:53.527Z,18.60
2022-12-05T12:33:31.114Z,21.03
2022-12-05T12:36:12.822Z,18.97
2022-12-05T12:39:20.186Z,18.60
2022-12-05T12:42:10.251Z,18.27
2022-12-05T12:45:14.541Z,19.20
2022-12-05T12:47:55.490Z,20.50
2022-12-05T12:50:25.592Z,20.60
2022-12-05T12:53:29.701Z,18.20
2022-12-05T12:56:08.557Z,18.33
2022-12-05T12:58:47.928Z,20.07
2022-12-05T13:01:27.269Z,17.90
2022-12-05T13:04:02.842Z,19.13
2022-12-05T13:06:35.866Z,20.30
2022-12-05T13:09:08.543Z,18.43
2022-12-05T13:11:41.246Z,19.00
2022-12-05T13:14:13.760Z,19.47
2022-12-05T13:16:48.259Z,20.73
2022-12-05T13:19:28.290Z,20.70
2022-12-05T13:21:59.249Z,18.80
2022-12-05T13:24:29.624Z,19.90
2022-12-05T13:27:01.251Z,19.63
2022-12-05T13:29:34.101Z,19.40
2022-12-05T13:32:05.361Z,19.70
2022-12-05T13:34:46.012Z,19.40
2022-12-05T13:37:41.835Z,18.97
2022-12-05T13:40:42.042Z,18.67
2022-12-05T13:43:11.468Z,19.77
2022-12-05T13:45:41.156Z,18.57
2022-12-05T13:48:23.042Z,20.90
2022-12-05T13:50:56.156Z,18.97
2022-12-05T13:53:30.366Z,20.07
2022-12-05T13:56:04.637Z,19.00
2022-12-05T13:58:49.669Z,19.97
2022-12-05T14:01:47.653Z,20.90
2022-12-05T14:04:50.252Z,20.53
2022-12-05T14:07:40.705Z,20.00
2022-12-05T14:10:10.867Z,20.30
2022-12-05T14:12:49.615Z,20.87
2022-12-05T14:15:33.484Z,18.97
2022-12-05T14:18:06.952Z,18.60
2022-12-05T14:20:50.156Z,18.90
2022-12-05T14:23:44.610Z,20.60
2022-12-05T14:26:32.457Z,19.23
2022-12-05T14:29:18.125Z,19.23
2022-12-05T14:32:04.583Z,19.43
2022-12-05T14:34:35.941Z,19.13
2022-12-05T14:37:07.556Z,19.57
2022-12-05T14:39:42.540Z,19.87
2022-12-05T14:42:28.187Z,20.50
2022-12-05T14:44:59.235Z,21.23
2022-12-05T14:47:31.065Z,20.07
2022-12-05T14:50:04.279Z,19.83
2022-12-05T14:52:34.470Z,20.03
2022-12-05T14:55:11.911Z,18.17
2022-12-05T14:57:47.002Z,21.17
2022-12-05T15:00:22.343Z,19.90
2022-12-05T15:02:55.398Z,20.93
2022-12-05T15:05:28.492Z,19.43
2022-12-05T15:08:01.582Z,20.53
2022-12-05T15:10:34.078Z,20.67
2022-12-05T15:13:05.919Z,20.07
2022-12-05T15:15:38.806Z,19.10
2022-12-05T15:18:16.479Z,18.40
2022-12-05T15:20:50.583Z,21.33
2022-12-05T15:23:41.477Z,20.37
2022-12-05T15:29:10.303Z,20.03
2022-12-05T15:31:45.119Z,20.30
2022-12-05T15:34:19.622Z,20.40
2022-12-05T15:36:51.665Z,20.23
2022-12-05T15:39:25.721Z,20.97
2022-12-05T15:41:56.774Z,21.47
2022-12-05T15:44:34.411Z,21.13
2022-12-05T15:47:05.987Z,20.90
2022-12-05T15:49:36.530Z,20.37
2022-12-05T15:52:15.636Z,21.80
2022-12-05T15:54:45.080Z,21.43
2022-12-05T15:57:20.218Z,21.60
2022-12-05T15:59:51.624Z,22.77
2022-12-05T16:02:23.691Z,28.83
2022-12-05T16:04:54.937Z,22.30
2022-12-05T16:07:27.162Z,21.60
2022-12-05T16:09:57.873Z,21.63
2022-12-05T16:12:33.676Z,23.03
2022-12-05T16:15:05.854Z,20.17
2022-12-05T16:17:41.975Z,24.53
2022-12-05T16:20:23.667Z,23.30
2022-12-05T16:22:54.612Z,23.13
2022-12-05T16:25:26.008Z,26.17
2022-12-05T16:28:00.780Z,23.43
2022-12-05T16:30:29.991Z,24.97
2022-12-05T16:33:06.727Z,23.13
2022-12-05T16:35:37.688Z,23.57
2022-12-05T16:38:10.466Z,24.73
2022-12-05T16:40:39.949Z,23.00
2022-12-05T16:43:20.307Z,25.33
2022-12-05T16:45:49.516Z,24.47
2022-12-05T16:48:22.188Z,24.93
2022-12-05T16:50:52.229Z,24.93
2022-12-05T16:53:28.077Z,24.43
2022-12-05T16:55:56.671Z,24.57
2022-12-05T16:58:30.764Z,23.90
2022-12-05T17:01:05.310Z,23.20
2022-12-05T17:03:35.677Z,25.07
2022-12-05T17:06:04.484Z,25.30
2022-12-05T17:08:33.045Z,24.87
2022-12-05T17:11:01.957Z,23.30
2022-12-05T17:13:33.120Z,24.90
2022-12-05T17:16:01.301Z,23.43
2022-12-05T17:18:31.808Z,23.77
2022-12-05T17:21:02.923Z,23.10
2022-12-05T17:23:31.254Z,26.50
2022-12-05T17:26:00.334Z,26.67
2022-12-05T17:28:28.690Z,25.07
2022-12-05T17:30:58.164Z,26.00
2022-12-05T17:33:26.481Z,26.23
2022-12-05T17:35:54.569Z,26.33
2022-12-05T17:38:23.217Z,25.87
2022-12-05T17:40:51.630Z,27.63
2022-12-05T17:43:25.085Z,26.13
2022-12-05T17:45:54.719Z,26.47
2022-12-05T17:48:26.381Z,27.17
2022-12-05T17:50:57.613Z,26.57
2022-12-05T17:53:26.213Z,26.47
2022-12-05T17:55:54.244Z,25.80
2022-12-05T17:58:22.575Z,26.80
2022-12-05T18:00:50.877Z,27.30
2022-12-05T18:03:19.418Z,25.70
2022-12-05T18:05:48.958Z,26.80
2022-12-05T18:08:17.747Z,26.90
2022-12-05T18:10:47.796Z,28.03
2022-12-05T18:13:17.290Z,27.63
2022-12-05T18:15:47.893Z,25.80
2022-12-05T18:18:18.333Z,29.77
2022-12-05T18:20:47.808Z,26.93
2022-12-05T18:23:16.149Z,28.50
2022-12-05T18:25:44.259Z,28.20
2022-12-05T18:28:17.757Z,28.10
2022-12-05T18:30:47.826Z,28.67
2022-12-05T18:33:16.327Z,28.07
2022-12-05T18:35:45.730Z,28.83
2022-12-05T18:38:15.464Z,29.40
2022-12-05T18:40:45.632Z,28.83
2022-12-05T18:43:14.686Z,30.60
2022-12-05T18:45:42.800Z,26.43
2022-12-05T18:48:31.348Z,28.97
2022-12-05T18:51:08.434Z,27.53
2022-12-05T18:53:38.341Z,29.73
2022-12-05T18:56:24.671Z,30.53
2022-12-05T18:58:55.391Z,29.83
2022-12-05T19:01:24.024Z,29.80
2022-12-05T19:03:52.681Z,28.70
2022-12-05T19:06:22.966Z,30.60
2022-12-05T19:08:55.078Z,29.27
2022-12-05T19:11:23.827Z,28.80
2022-12-05T19:13:55.835Z,29.07
2022-12-05T19:16:24.426Z,25.93
2022-12-05T19:18:55.895Z,29.87
2022-12-05T19:21:24.281Z,30.40
2022-12-05T19:23:53.941Z,27.77
2022-12-05T19:26:23.367Z,29.93
2022-12-05T19:28:51.788Z,29.50
2022-12-05T19:31:22.251Z,28.93
2022-12-05T19:33:52.844Z,29.53
2022-12-05T19:36:24.791Z,30.37
2022-12-05T19:38:56.534Z,29.90
2022-12-05T19:41:27.211Z,30.23
2022-12-05T19:43:56.422Z,28.27
2022-12-05T19:46:26.830Z,29.73
2022-12-05T19:48:56.772Z,29.70
2022-12-05T19:51:25.179Z,32.60
2022-12-05T19:53:54.828Z,30.47
2022-12-05T19:56:24.785Z,37.90
2022-12-05T19:58:54.595Z,33.90
2022-12-05T20:01:24.704Z,32.53
2022-12-05T20:03:54.500Z,30.37
2022-12-05T20:06:23.824Z,31.47
2022-12-05T20:08:54.694Z,31.07
2022-12-05T20:11:25.096Z,30.90
2022-12-05T20:13:55.773Z,30.20
2022-12-05T20:16:26.735Z,30.40
2022-12-05T20:18:58.010Z,32.27
2022-12-05T20:21:28.679Z,30.57
2022-12-05T20:24:00.729Z,30.87
2022-12-05T20:26:30.894Z,30.87
2022-12-05T20:29:00.713Z,30.43
2022-12-05T20:31:30.785Z,31.10
2022-12-05T20:33:59.319Z,31.20
2022-12-05T20:36:29.021Z,31.90
2022-12-05T20:39:02.395Z,31.87
2022-12-05T20:41:31.591Z,32.40
2022-12-05T20:44:02.362Z,33.77
2022-12-05T20:46:31.673Z,33.40
2022-12-05T20:49:00.585Z,31.27
2022-12-05T20:51:29.959Z,31.77
2022-12-05T20:54:01.235Z,31.30
2022-12-05T20:56:31.561Z,30.87
2022-12-05T20:59:02.944Z,31.50
2022-12-05T21:01:33.874Z,30.77
2022-12-05T21:04:03.480Z,33.30
2022-12-05T21:06:33.507Z,30.40
2022-12-05T21:09:05.431Z,33.60
2022-12-05T21:11:35.972Z,31.30
2022-12-05T21:14:05.068Z,31.70
2022-12-05T21:16:33.319Z,33.50
2022-12-05T21:19:01.894Z,36.30
2022-12-05T21:21:31.933Z,35.23
2022-12-05T21:24:03.561Z,39.70
2022-12-05T21:26:34.484Z,42.17
2022-12-05T21:29:03.928Z,40.00
2022-12-05T21:31:34.364Z,37.83
2022-12-05T21:34:07.735Z,36.17
2022-12-05T21:36:37.493Z,33.50
2022-12-05T21:39:08.287Z,32.93
2022-12-05T21:41:36.497Z,32.60
2022-12-05T21:44:05.482Z,34.70
2022-12-05T21:46:33.857Z,34.67
2022-12-05T21:49:02.513Z,35.90
2022-12-05T21:51:30.614Z,35.33
2022-12-05T21:53:58.936Z,36.27
2022-12-05T21:56:28.524Z,35.07
2022-12-05T21:58:56.808Z,36.97
2022-12-05T22:01:27.212Z,37.90
2022-12-05T22:03:59.080Z,35.87
2022-12-05T22:06:27.355Z,34.43
2022-12-05T22:08:56.515Z,39.63
2022-12-05T22:11:26.196Z,40.97
2022-12-05T22:13:56.057Z,36.73
2022-12-05T22:16:30.704Z,35.90
2022-12-05T22:19:01.165Z,35.70
2022-12-05T22:21:29.464Z,35.70
2022-12-05T22:23:57.907Z,41.73
2022-12-05T22:26:27.060Z,40.00
2022-12-05T22:28:57.225Z,37.37
2022-12-05T22:31:25.846Z,35.27
2022-12-05T22:33:54.332Z,36.33
2022-12-05T22:36:24.113Z,35.70
2022-12-05T22:38:52.539Z,36.37
2022-12-05T22:41:22.192Z,34.73
2022-12-05T22:43:54.763Z,35.47
2022-12-05T22:46:24.619Z,35.10
2022-12-05T22:48:53.386Z,35.47
2022-12-05T22:51:22.742Z,35.10
2022-12-05T22:53:52.274Z,35.77
2022-12-05T22:56:21.526Z,34.00
2022-12-05T22:58:53.497Z,34.80
2022-12-05T23:01:24.905Z,37.37
2022-12-05T23:03:56.129Z,33.87
2022-12-05T23:06:24.350Z,34.30
2022-12-05T23:08:53.095Z,35.37
2022-12-05T23:11:22.106Z,33.20
2022-12-05T23:13:50.981Z,32.90
2022-12-05T23:16:22.196Z,32.77
2022-12-05T23:18:53.623Z,33.20
2022-12-05T23:21:25.543Z,33.17
2022-12-05T23:23:55.144Z,35.40
2022-12-05T23:26:25.008Z,31.47
2022-12-05T23:28:53.957Z,32.33
2022-12-05T23:31:22.584Z,31.07
2022-12-05T23:33:52.291Z,31.57
2022-12-05T23:36:20.911Z,34.77
2022-12-05T23:38:49.651Z,31.77
2022-12-05T23:41:19.773Z,33.30
2022-12-05T23:43:49.364Z,31.40
2022-12-05T23:46:19.940Z,31.90
2022-12-05T23:48:48.875Z,30.57
2022-12-05T23:51:20.303Z,32.50
2022-12-05T23:53:53.022Z,31.27
2022-12-05T23:56:22.986Z,31.83
2022-12-05T23:58:52.085Z,31.90
